Time;durP1;ratioP1;P1;durP2;ratioP2;P2;SDS_P1;SDS_P2;PMS_P1;PMS_P2;Temp;Humidity;BMP_temperature;BMP_pressure;BME280_temperature;BME280_humidity;BME280_pressure;Samples;Min_cycle;Max_cycle;Signal;HPM_P1;HPM_P2
2021/12/16 00:02:33;;;;;;;11.98;8.85;;;12.80;78.50;;;;;;5074660;28;20127;-94
2021/12/16 00:29:31;;;;;;;13.93;9.40;;;12.70;79.20;;;;;;5001102;28;20121;-94
2021/12/16 00:32:00;;;;;;;11.98;9.25;;;12.70;78.50;;;;;;5016478;28;20068;-94
2021/12/16 00:34:31;;;;;;;13.80;10.13;;;12.80;78.60;;;;;;5000023;28;20087;-95
2021/12/16 00:37:01;;;;;;;14.13;10.80;;;12.80;78.60;;;;;;4984244;28;20041;-94
2021/12/16 00:39:34;;;;;;;13.88;10.25;;;12.80;78.60;;;;;;5000715;28;20437;-95
2021/12/16 00:42:12;;;;;;;13.25;9.90;;;12.80;78.60;;;;;;4995937;28;20053;-94
2021/12/16 00:49:42;;;;;;;13.45;9.82;;;12.70;78.50;;;;;;5057901;28;20458;-94
2021/12/16 00:55:10;;;;;;;14.65;10.90;;;12.80;78.50;;;;;;5058216;28;20037;-94
2021/12/16 00:57:38;;;;;;;14.18;10.80;;;12.80;78.50;;;;;;5058932;28;20060;-95
2021/12/16 01:00:07;;;;;;;14.90;9.98;;;12.70;78.40;;;;;;5048933;28;20037;-93
2021/12/16 01:40:57;;;;;;;14.98;10.63;;;12.70;78.60;;;;;;5057366;28;20037;-92
2021/12/16 02:00:00;;;;;;;13.00;9.73;;;12.70;78.60;;;;;;5031559;28;20049;-92
2021/12/16 02:02:44;;;;;;;14.15;10.65;;;12.70;78.60;;;;;;5056741;28;20056;-93
2021/12/16 02:10:37;;;;;;;13.65;9.65;;;12.70;78.60;;;;;;5056386;28;20051;-91
2021/12/16 02:13:47;;;;;;;14.52;10.40;;;12.70;78.60;;;;;;5057352;28;20033;-93
2021/12/16 02:37:43;;;;;;;14.43;10.73;;;12.60;78.50;;;;;;5038202;28;20029;-91
2021/12/16 02:40:09;;;;;;;15.10;11.00;;;12.70;78.70;;;;;;5055624;28;20032;-92
2021/12/16 02:42:52;;;;;;;15.18;10.38;;;12.60;78.60;;;;;;5038105;28;20040;-91
2021/12/16 02:50:50;;;;;;;14.75;10.38;;;12.60;78.50;;;;;;5040994;28;20465;-91
2021/12/16 02:53:16;;;;;;;15.52;10.60;;;12.60;78.50;;;;;;5020777;28;20052;-89
2021/12/16 02:55:41;;;;;;;14.13;10.27;;;12.60;78.50;;;;;;5037642;28;20067;-91
2021/12/16 02:58:07;;;;;;;14.25;10.07;;;12.60;78.60;;;;;;5005191;28;20037;-91
2021/12/16 03:00:39;;;;;;;15.05;10.85;;;12.60;78.60;;;;;;5037838;28;20044;-92
2021/12/16 03:03:06;;;;;;;13.55;10.05;;;12.60;78.60;;;;;;5037811;28;20029;-92
2021/12/16 03:05:33;;;;;;;13.40;9.73;;;12.60;78.50;;;;;;5055246;28;20021;-92
2021/12/16 03:07:59;;;;;;;14.27;9.98;;;12.60;78.60;;;;;;5054455;28;20032;-91
2021/12/16 03:18:37;;;;;;;15.90;11.15;;;12.60;78.60;;;;;;5054128;28;20060;-92
2021/12/16 03:21:17;;;;;;;13.80;10.18;;;12.60;78.60;;;;;;5037941;28;20025;-91
2021/12/16 03:24:26;;;;;;;14.55;10.50;;;12.60;78.60;;;;;;5039364;28;20025;-91
2021/12/16 03:37:15;;;;;;;13.90;10.32;;;12.60;78.60;;;;;;5037884;28;20056;-92
2021/12/16 03:40:04;;;;;;;13.90;9.68;;;12.60;78.60;;;;;;5038367;28;20422;-92
2021/12/16 03:42:38;;;;;;;12.52;9.13;;;12.50;78.60;;;;;;5025562;28;20048;-91
2021/12/16 03:48:26;;;;;;;12.30;9.75;;;12.50;78.60;;;;;;5020140;28;20036;-91
2021/12/16 03:50:52;;;;;;;12.00;9.38;;;12.50;78.50;;;;;;5053491;28;20094;-91
2021/12/16 03:53:19;;;;;;;13.38;9.77;;;12.50;78.60;;;;;;5054094;28;20433;-92
2021/12/16 03:55:46;;;;;;;13.55;9.95;;;12.50;78.60;;;;;;5037618;28;20025;-90
2021/12/16 03:58:13;;;;;;;11.90;9.50;;;12.50;78.60;;;;;;5039789;28;20037;-91
2021/12/16 04:00:47;;;;;;;13.65;9.80;;;12.50;78.60;;;;;;5058122;28;20072;-92
2021/12/16 04:03:14;;;;;;;12.55;9.15;;;12.50;78.60;;;;;;5041824;28;20060;-91
2021/12/16 04:05:42;;;;;;;11.93;9.00;;;12.50;78.60;;;;;;5041668;28;20116;-92
2021/12/16 04:08:09;;;;;;;12.40;8.93;;;12.50;78.60;;;;;;5043500;28;20148;-91
2021/12/16 04:11:05;;;;;;;11.27;8.73;;;12.50;78.60;;;;;;5057175;28;20104;-91
2021/12/16 04:16:38;;;;;;;12.57;9.15;;;12.40;78.50;;;;;;5043207;28;20040;-94
2021/12/16 04:19:11;;;;;;;12.25;9.70;;;12.40;78.50;;;;;;5041259;28;20415;-92
2021/12/16 04:21:42;;;;;;;13.05;9.43;;;12.40;78.50;;;;;;5057276;28;20501;-90
2021/12/16 04:24:09;;;;;;;13.80;9.48;;;12.40;78.50;;;;;;5040748;28;20021;-91
2021/12/16 04:26:37;;;;;;;14.05;9.55;;;12.40;78.50;;;;;;5040581;28;20025;-91
2021/12/16 04:29:06;;;;;;;12.02;9.50;;;12.40;78.50;;;;;;5040894;28;20052;-92
2021/12/16 04:31:35;;;;;;;12.52;9.05;;;12.40;78.60;;;;;;5040836;28;20057;-91
2021/12/16 04:34:06;;;;;;;12.65;9.57;;;12.40;78.50;;;;;;5024608;28;20044;-90
2021/12/16 04:36:36;;;;;;;13.20;9.65;;;12.40;78.50;;;;;;5042095;28;20036;-92
2021/12/16 04:39:10;;;;;;;13.13;9.80;;;12.40;78.50;;;;;;5024599;28;20032;-91
2021/12/16 04:41:37;;;;;;;12.20;9.33;;;12.40;78.60;;;;;;5038967;28;20489;-92
2021/12/16 04:44:09;;;;;;;11.93;8.90;;;12.40;78.50;;;;;;5040554;28;20762;-92
2021/12/16 04:46:36;;;;;;;13.23;9.43;;;12.40;78.60;;;;;;5040482;28;20032;-91
2021/12/16 04:49:04;;;;;;;11.90;9.55;;;12.40;78.50;;;;;;5040393;28;20025;-90
2021/12/16 04:51:39;;;;;;;12.98;9.38;;;12.40;78.50;;;;;;5026105;28;20025;-92
2021/12/16 04:54:06;;;;;;;12.35;9.32;;;12.40;78.50;;;;;;5040909;28;20029;-89
2021/12/16 04:56:34;;;;;;;13.32;9.60;;;12.40;78.60;;;;;;5040481;28;20029;-92
2021/12/16 04:59:08;;;;;;;13.10;8.77;;;12.40;78.50;;;;;;5042452;28;20028;-89
2021/12/16 05:01:40;;;;;;;12.82;9.18;;;12.40;78.50;;;;;;5057237;28;20033;-92
2021/12/16 05:04:07;;;;;;;13.00;9.15;;;12.40;78.50;;;;;;5056911;28;20063;-92
2021/12/16 05:06:34;;;;;;;12.50;9.43;;;12.40;78.50;;;;;;5056145;28;20029;-92
2021/12/16 05:09:00;;;;;;;12.95;10.18;;;12.40;78.50;;;;;;5039120;28;20110;-90
2021/12/16 05:11:35;;;;;;;12.45;8.98;;;12.40;78.50;;;;;;5056899;28;20041;-92
2021/12/16 05:14:05;;;;;;;12.52;9.25;;;12.40;78.50;;;;;;5055646;28;20045;-91
2021/12/16 05:16:33;;;;;;;12.57;8.70;;;12.40;78.60;;;;;;5057150;28;20480;-92
2021/12/16 05:18:59;;;;;;;12.85;9.00;;;12.40;78.60;;;;;;5023726;28;20033;-90
2021/12/16 05:21:54;;;;;;;12.00;8.18;;;12.40;78.60;;;;;;5039899;28;20473;-92
2021/12/16 05:24:27;;;;;;;10.98;8.40;;;12.40;78.60;;;;;;5043060;28;20044;-92
2021/12/16 05:27:19;;;;;;;11.98;9.30;;;12.30;78.40;;;;;;5052918;28;20044;-92
2021/12/16 05:29:45;;;;;;;11.65;8.52;;;12.40;78.50;;;;;;5022724;28;20124;-92
2021/12/16 05:32:13;;;;;;;12.15;8.88;;;12.40;78.50;;;;;;5039914;28;20029;-92
2021/12/16 05:34:40;;;;;;;12.48;9.65;;;12.40;78.60;;;;;;5040198;28;20028;-90
2021/12/16 05:37:08;;;;;;;12.23;9.05;;;12.40;78.60;;;;;;5040464;28;20041;-92
2021/12/16 05:39:36;;;;;;;12.23;8.95;;;12.40;78.60;;;;;;5025077;28;20072;-92
2021/12/16 05:42:25;;;;;;;12.27;9.15;;;12.40;78.60;;;;;;5054609;28;20032;-93
2021/12/16 05:44:50;;;;;;;11.80;8.27;;;12.30;78.40;;;;;;5042146;28;20123;-87
2021/12/16 05:47:17;;;;;;;11.73;8.77;;;12.30;78.50;;;;;;5058731;28;20496;-93
2021/12/16 05:49:46;;;;;;;12.10;9.25;;;12.30;78.50;;;;;;5043821;28;20036;-90
2021/12/16 05:52:13;;;;;;;12.20;8.82;;;12.30;78.50;;;;;;5061394;28;20072;-95
2021/12/16 05:54:40;;;;;;;11.48;8.55;;;12.30;78.50;;;;;;5041984;28;20021;-93
2021/12/16 05:57:14;;;;;;;13.13;9.25;;;12.30;78.50;;;;;;5056556;28;20470;-94
2021/12/16 05:59:45;;;;;;;12.38;8.73;;;12.30;78.50;;;;;;5043497;28;20469;-87
2021/12/16 06:02:11;;;;;;;12.35;8.73;;;12.30;78.50;;;;;;5058773;28;20094;-92
2021/12/16 06:04:39;;;;;;;12.48;9.60;;;12.30;78.50;;;;;;5043723;28;20013;-95
2021/12/16 06:07:10;;;;;;;12.02;8.35;;;12.30;78.50;;;;;;5043799;28;20110;-89
2021/12/16 06:09:36;;;;;;;11.50;8.60;;;12.30;78.50;;;;;;5038688;28;20061;-88
2021/12/16 06:12:02;;;;;;;12.27;8.70;;;12.30;78.50;;;;;;5055867;28;20500;-86
2021/12/16 06:14:46;;;;;;;12.38;9.30;;;12.30;78.50;;;;;;5058350;28;20028;-85
2021/12/16 06:28:10;;;;;;;10.80;7.90;;;12.30;78.50;;;;;;5057283;28;20048;-94
2021/12/16 06:30:40;;;;;;;11.95;8.63;;;12.30;78.50;;;;;;5056324;28;20032;-95
2021/12/16 06:33:09;;;;;;;10.98;7.75;;;12.20;78.60;;;;;;5055980;28;20063;-94
2021/12/16 06:35:35;;;;;;;12.82;9.07;;;12.20;78.60;;;;;;5057500;28;20167;-90
2021/12/16 06:38:02;;;;;;;12.02;8.32;;;12.30;78.60;;;;;;5039051;28;20029;-90
2021/12/16 06:40:33;;;;;;;11.95;8.52;;;12.20;78.60;;;;;;5041374;28;20035;-95
2021/12/16 06:43:10;;;;;;;11.77;8.60;;;12.30;78.60;;;;;;5042576;28;20036;-94
2021/12/16 06:45:41;;;;;;;13.05;9.23;;;12.30;78.60;;;;;;5056691;28;20029;-94
2021/12/16 06:48:12;;;;;;;10.00;7.47;;;12.30;78.60;;;;;;5055655;28;20025;-93
2021/12/16 06:53:11;;;;;;;11.65;7.90;;;12.30;78.60;;;;;;5055437;28;20044;-93
2021/12/16 06:55:51;;;;;;;11.18;7.80;;;12.30;78.70;;;;;;5038495;28;20443;-90
2021/12/16 06:58:24;;;;;;;11.60;8.50;;;12.20;78.60;;;;;;5040305;28;20119;-92
2021/12/16 07:01:01;;;;;;;10.70;7.82;;;12.20;78.50;;;;;;5055946;28;20039;-85
2021/12/16 07:03:39;;;;;;;11.10;8.15;;;12.20;78.60;;;;;;5055480;28;20056;-93
2021/12/16 07:06:04;;;;;;;10.43;7.93;;;12.20;78.50;;;;;;5038168;28;20047;-92
2021/12/16 07:08:30;;;;;;;10.85;7.80;;;12.20;78.50;;;;;;5037680;28;20127;-91
2021/12/16 07:10:57;;;;;;;11.10;8.20;;;12.20;78.50;;;;;;5037853;28;20071;-91
2021/12/16 07:13:36;;;;;;;11.30;8.00;;;12.20;78.50;;;;;;5055069;28;20117;-91
2021/12/16 07:16:04;;;;;;;11.43;7.70;;;12.20;78.60;;;;;;5054412;28;20470;-91
2021/12/16 07:18:30;;;;;;;10.77;7.80;;;12.20;78.50;;;;;;5037397;28;20394;-92
2021/12/16 07:20:56;;;;;;;11.23;7.90;;;12.20;78.50;;;;;;5054007;28;20029;-96
2021/12/16 07:23:21;;;;;;;9.10;7.07;;;12.20;78.60;;;;;;5037621;28;20053;-92
2021/12/16 07:25:47;;;;;;;10.88;7.63;;;12.20;78.60;;;;;;5021073;28;20451;-94
2021/12/16 07:28:14;;;;;;;10.73;7.57;;;12.20;78.60;;;;;;5053759;28;20103;-93
2021/12/16 07:30:43;;;;;;;11.18;8.02;;;12.20;78.60;;;;;;5037236;28;20045;-94
2021/12/16 07:33:12;;;;;;;11.60;7.88;;;12.20;78.60;;;;;;5037173;28;20033;-92
2021/12/16 07:35:40;;;;;;;11.45;8.30;;;12.20;78.60;;;;;;5053952;28;20037;-93
2021/12/16 07:38:06;;;;;;;11.80;8.50;;;12.20;78.60;;;;;;5054758;28;20028;-92
2021/12/16 07:40:34;;;;;;;9.57;7.63;;;12.20;78.60;;;;;;5037766;28;20033;-92
2021/12/16 07:45:41;;;;;;;9.65;7.32;;;12.20;78.60;;;;;;5055286;28;20037;-92
2021/12/16 07:48:08;;;;;;;11.00;7.68;;;12.20;78.60;;;;;;5049628;28;20032;-92
2021/12/16 07:50:35;;;;;;;9.90;7.38;;;12.20;78.60;;;;;;5036984;28;20029;-90
2021/12/16 07:53:01;;;;;;;9.70;7.03;;;12.20;78.70;;;;;;5036804;28;20037;-90
2021/12/16 07:55:27;;;;;;;11.63;8.38;;;12.20;79.20;;;;;;5036590;28;20029;-91
2021/12/16 07:57:53;;;;;;;10.98;8.00;;;12.20;78.60;;;;;;5036966;28;20036;-91
2021/12/16 08:00:24;;;;;;;10.73;7.78;;;12.20;78.60;;;;;;5053289;28;20485;-91
2021/12/16 08:02:50;;;;;;;10.45;7.40;;;12.20;78.70;;;;;;5053723;28;20060;-93
2021/12/16 08:05:18;;;;;;;9.73;7.20;;;12.20;78.70;;;;;;5036894;28;20082;-92
2021/12/16 08:07:44;;;;;;;10.02;7.40;;;12.10;78.60;;;;;;5053245;28;20056;-92
2021/12/16 08:10:15;;;;;;;10.05;7.18;;;12.20;78.60;;;;;;5019587;28;20442;-91
2021/12/16 08:12:41;;;;;;;10.10;7.38;;;12.20;78.60;;;;;;5037747;28;20045;-92
2021/12/16 08:15:08;;;;;;;10.15;7.97;;;12.20;78.60;;;;;;5055226;28;20457;-91
2021/12/16 08:17:34;;;;;;;10.18;7.88;;;12.20;78.60;;;;;;5038754;28;20048;-91
2021/12/16 08:20:00;;;;;;;10.05;6.93;;;12.20;78.60;;;;;;5038938;28;20041;-91
2021/12/16 08:22:26;;;;;;;10.35;7.28;;;12.10;78.60;;;;;;5055263;28;20021;-90
2021/12/16 08:24:52;;;;;;;10.27;7.72;;;12.10;78.60;;;;;;5038060;28;20215;-91
2021/12/16 08:27:18;;;;;;;10.07;7.30;;;12.10;78.60;;;;;;5037105;28;20342;-88
2021/12/16 08:29:45;;;;;;;10.23;7.28;;;12.20;78.70;;;;;;5037221;28;20021;-90
2021/12/16 08:32:11;;;;;;;9.45;6.80;;;12.10;78.60;;;;;;5055659;28;20033;-89
2021/12/16 08:34:39;;;;;;;9.05;7.03;;;12.10;78.60;;;;;;5055692;28;20075;-91
2021/12/16 08:37:08;;;;;;;9.07;7.05;;;12.10;78.60;;;;;;5054571;28;20047;-92
2021/12/16 08:39:35;;;;;;;9.55;6.60;;;12.10;78.60;;;;;;5037802;28;20128;-92
2021/12/16 08:42:02;;;;;;;9.60;6.80;;;12.10;78.60;;;;;;5037386;28;20047;-90
2021/12/16 08:44:28;;;;;;;8.60;6.25;;;12.10;78.60;;;;;;5039166;28;20025;-93
2021/12/16 08:46:58;;;;;;;10.30;7.35;;;12.10;78.60;;;;;;5057532;28;20025;-89
2021/12/16 08:49:25;;;;;;;9.50;6.75;;;12.10;79.30;;;;;;5057121;28;20029;-90
2021/12/16 08:51:54;;;;;;;9.70;7.10;;;12.10;78.70;;;;;;5040777;28;20037;-87
2021/12/16 08:54:21;;;;;;;8.88;6.35;;;12.10;78.70;;;;;;5039853;28;20017;-86
2021/12/16 08:56:48;;;;;;;9.63;6.95;;;12.10;78.70;;;;;;5023452;28;20055;-91
2021/12/16 08:59:14;;;;;;;9.43;6.70;;;12.10;78.60;;;;;;5039872;28;20043;-94
2021/12/16 09:01:44;;;;;;;8.88;6.07;;;12.10;78.70;;;;;;5040698;28;20033;-93
2021/12/16 09:04:10;;;;;;;10.30;7.30;;;12.10;78.70;;;;;;5040139;28;20025;-85
2021/12/16 09:06:37;;;;;;;8.25;6.25;;;12.10;78.70;;;;;;5056057;28;20043;-89
2021/12/16 09:09:06;;;;;;;8.85;6.60;;;12.10;78.70;;;;;;5023999;28;20400;-93
2021/12/16 09:11:37;;;;;;;8.55;6.10;;;12.10;78.70;;;;;;5056634;28;20083;-86
2021/12/16 09:14:03;;;;;;;8.82;6.30;;;12.10;78.70;;;;;;5040177;28;20461;-84
2021/12/16 09:16:32;;;;;;;8.88;6.40;;;12.10;78.70;;;;;;5040102;28;20044;-90
2021/12/16 09:19:00;;;;;;;9.45;6.95;;;12.10;78.70;;;;;;5057348;28;20032;-87
2021/12/16 09:21:29;;;;;;;8.85;6.30;;;12.10;78.70;;;;;;5058203;28;20032;-91
2021/12/16 09:23:56;;;;;;;8.80;6.53;;;12.10;78.80;;;;;;5039867;28;20039;-89
2021/12/16 09:26:23;;;;;;;9.48;6.38;;;12.10;78.80;;;;;;5056564;28;20127;-83
2021/12/16 09:28:49;;;;;;;8.32;6.00;;;12.00;78.70;;;;;;5039491;28;20051;-86
2021/12/16 09:31:22;;;;;;;9.43;6.18;;;12.10;78.80;;;;;;5039712;28;20036;-87
2021/12/16 09:33:51;;;;;;;8.60;6.35;;;12.10;78.80;;;;;;5055892;28;20029;-86
2021/12/16 09:36:20;;;;;;;8.95;6.57;;;12.10;78.80;;;;;;5039625;28;20017;-92
2021/12/16 09:38:47;;;;;;;8.65;6.28;;;12.10;78.80;;;;;;5056582;28;20021;-88
2021/12/16 09:41:13;;;;;;;8.93;6.72;;;12.10;78.80;;;;;;5038992;28;20036;-88
2021/12/16 09:43:46;;;;;;;9.02;6.88;;;12.10;78.80;;;;;;5055069;28;20029;-86
2021/12/16 09:46:14;;;;;;;8.38;6.35;;;12.10;78.90;;;;;;5055757;28;20037;-88
2021/12/16 09:48:42;;;;;;;8.32;6.43;;;12.10;78.80;;;;;;5057424;28;20063;-89
2021/12/16 09:51:13;;;;;;;9.15;6.65;;;12.10;78.80;;;;;;5038756;28;20363;-92
2021/12/16 09:53:39;;;;;;;9.35;6.85;;;12.10;78.80;;;;;;5039125;28;20454;-87
2021/12/16 09:56:09;;;;;;;9.02;6.22;;;12.10;78.80;;;;;;5053996;28;20102;-85
2021/12/16 09:58:38;;;;;;;8.82;6.70;;;12.10;78.90;;;;;;5056621;28;20028;-87
2021/12/16 10:01:05;;;;;;;8.52;5.93;;;12.10;78.80;;;;;;5056760;28;20028;-85
2021/12/16 10:03:31;;;;;;;9.15;6.35;;;12.10;78.80;;;;;;5021585;28;20041;-85
2021/12/16 10:05:58;;;;;;;8.93;6.32;;;12.10;78.80;;;;;;5037555;28;20029;-83
2021/12/16 10:08:24;;;;;;;8.05;6.28;;;12.10;78.80;;;;;;5054232;28;20029;-81
2021/12/16 10:10:50;;;;;;;8.95;6.45;;;12.10;78.90;;;;;;5054886;28;20067;-84
2021/12/16 10:13:22;;;;;;;8.88;6.97;;;12.10;78.80;;;;;;5039488;28;20033;-91
2021/12/16 10:18:18;;;;;;;8.68;6.45;;;12.10;78.80;;;;;;5038380;28;20492;-86
2021/12/16 10:20:58;;;;;;;8.45;5.88;;;12.10;78.90;;;;;;5054795;28;20137;-85
2021/12/16 10:23:33;;;;;;;10.30;6.50;;;12.10;79.00;;;;;;5055725;28;20028;-86
2021/12/16 10:26:06;;;;;;;8.63;6.38;;;12.10;79.00;;;;;;5037459;28;20033;-84
2021/12/16 10:28:36;;;;;;;8.43;5.90;;;12.10;78.90;;;;;;5037857;28;20031;-84
2021/12/16 10:31:27;;;;;;;8.10;5.93;;;12.10;79.00;;;;;;5054711;28;20033;-84
2021/12/16 10:34:00;;;;;;;8.35;6.22;;;12.10;79.00;;;;;;5053270;28;20047;-82
2021/12/16 10:36:37;;;;;;;8.05;5.85;;;12.10;78.90;;;;;;5037310;28;20454;-83
2021/12/16 10:39:18;;;;;;;8.88;5.90;;;12.10;78.90;;;;;;5054464;28;20025;-82
2021/12/16 10:41:51;;;;;;;8.60;6.20;;;12.10;79.00;;;;;;5054551;28;20119;-83
2021/12/16 10:44:22;;;;;;;8.68;5.85;;;12.10;79.00;;;;;;5053514;28;20017;-82
2021/12/16 10:47:00;;;;;;;7.95;5.75;;;12.10;79.00;;;;;;5036869;28;20373;-82
2021/12/16 10:49:43;;;;;;;9.02;6.15;;;12.10;79.00;;;;;;5037475;28;20500;-86
2021/12/16 10:52:13;;;;;;;8.98;6.13;;;12.20;79.00;;;;;;5054238;28;20029;-85
2021/12/16 10:54:47;;;;;;;9.35;6.15;;;12.20;79.00;;;;;;5055031;28;20029;-86
2021/12/16 10:57:24;;;;;;;9.52;6.47;;;12.10;79.00;;;;;;5054958;28;20458;-85
2021/12/16 10:59:53;;;;;;;7.90;5.80;;;12.20;79.10;;;;;;5054792;28;20053;-86
2021/12/16 11:02:33;;;;;;;9.10;6.40;;;12.20;79.00;;;;;;5053524;28;20029;-88
2021/12/16 11:05:13;;;;;;;9.52;7.13;;;12.20;79.10;;;;;;5054071;28;20480;-86
2021/12/16 11:07:45;;;;;;;8.48;5.80;;;12.20;79.00;;;;;;5053894;28;20029;-87
2021/12/16 11:10:11;;;;;;;8.43;5.78;;;12.20;79.00;;;;;;5053584;28;20075;-87
2021/12/16 11:12:52;;;;;;;7.97;5.68;;;12.20;79.00;;;;;;5053878;28;20045;-87
2021/12/16 11:15:29;;;;;;;9.13;6.15;;;12.20;79.10;;;;;;5055221;28;20029;-86
2021/12/16 11:18:09;;;;;;;9.32;6.75;;;12.20;79.00;;;;;;5054463;28;20120;-85
2021/12/16 11:20:46;;;;;;;9.57;6.68;;;12.20;79.00;;;;;;5054468;28;20035;-86
2021/12/16 11:23:32;;;;;;;8.13;5.88;;;12.20;79.00;;;;;;5053932;28;20057;-86
2021/12/16 11:26:14;;;;;;;8.20;5.72;;;12.20;79.10;;;;;;5054250;28;20037;-87
2021/12/16 11:28:44;;;;;;;10.18;6.15;;;12.20;79.10;;;;;;5037433;28;20377;-87
2021/12/16 11:31:12;;;;;;;8.65;6.47;;;12.20;79.00;;;;;;5037006;28;20128;-85
2021/12/16 11:33:47;;;;;;;8.68;6.15;;;12.20;79.00;;;;;;5054022;28;20079;-83
2021/12/16 11:36:18;;;;;;;8.50;6.10;;;12.20;79.10;;;;;;5036266;28;20516;-84
2021/12/16 11:38:49;;;;;;;8.45;6.05;;;12.20;79.00;;;;;;5052258;28;20052;-82
2021/12/16 11:41:38;;;;;;;9.98;6.63;;;12.20;79.00;;;;;;5036907;28;20564;-87
2021/12/16 11:44:21;;;;;;;8.90;6.05;;;12.20;79.00;;;;;;5054172;28;20029;-84
2021/12/16 11:46:47;;;;;;;8.45;5.90;;;12.30;79.10;;;;;;5036968;28;20088;-85
2021/12/16 11:49:22;;;;;;;8.48;6.05;;;12.30;79.00;;;;;;5053500;28;20021;-85
2021/12/16 11:52:02;;;;;;;9.50;6.43;;;12.30;79.10;;;;;;5054547;28;20029;-86
2021/12/16 11:55:02;;;;;;;9.32;6.43;;;12.20;79.10;;;;;;5036971;28;20033;-85
2021/12/16 11:57:34;;;;;;;9.00;6.20;;;12.30;79.20;;;;;;5052541;28;20588;-86
2021/12/16 12:00:16;;;;;;;8.68;5.85;;;12.30;79.00;;;;;;5053295;28;20036;-89
2021/12/16 12:02:48;;;;;;;8.85;6.70;;;12.30;79.10;;;;;;5036674;28;20063;-85
2021/12/16 12:05:25;;;;;;;9.15;6.53;;;12.30;79.10;;;;;;5037078;28;20032;-86
2021/12/16 12:07:57;;;;;;;8.18;5.50;;;12.30;79.10;;;;;;5053967;28;20025;-90
2021/12/16 12:10:41;;;;;;;9.35;6.30;;;12.30;79.10;;;;;;5053479;28;20131;-96
2021/12/16 12:13:12;;;;;;;9.35;6.55;;;12.30;79.20;;;;;;5036773;28;20029;-88
2021/12/16 12:15:53;;;;;;;9.95;6.68;;;12.30;79.10;;;;;;5037524;28;20029;-93
2021/12/16 12:18:36;;;;;;;8.25;5.78;;;12.30;79.20;;;;;;5055314;28;20029;-94
2021/12/16 12:21:28;;;;;;;8.38;6.00;;;12.30;79.20;;;;;;5044441;28;20029;-93
2021/12/16 12:24:14;;;;;;;7.93;5.68;;;12.30;79.20;;;;;;5060600;28;20035;-96
2021/12/16 12:26:44;;;;;;;9.00;6.30;;;12.30;79.10;;;;;;5059214;28;20025;-95
2021/12/16 12:29:35;;;;;;;8.65;6.45;;;12.30;79.00;;;;;;5057948;28;20124;-96
2021/12/16 12:32:12;;;;;;;8.68;6.32;;;12.30;79.20;;;;;;5042417;28;20032;-96
2021/12/16 12:34:42;;;;;;;9.18;6.38;;;12.30;79.10;;;;;;5058703;28;20090;-95
2021/12/16 12:37:10;;;;;;;8.73;6.38;;;12.30;79.10;;;;;;5060321;28;20025;-96
2021/12/16 12:39:42;;;;;;;8.07;6.15;;;12.30;79.10;;;;;;5060742;28;20091;-94
2021/12/16 12:42:11;;;;;;;8.10;5.60;;;12.40;79.10;;;;;;5057845;28;20064;-96
2021/12/16 12:44:38;;;;;;;9.57;6.40;;;12.40;79.10;;;;;;5040212;28;20036;-96
2021/12/16 12:47:07;;;;;;;8.88;6.45;;;12.40;79.70;;;;;;5040656;28;20020;-94
2021/12/16 12:49:33;;;;;;;9.85;7.13;;;12.30;79.00;;;;;;5059766;28;20086;-96
2021/12/16 12:52:10;;;;;;;9.52;6.05;;;12.40;79.00;;;;;;5058739;28;20029;-95
2021/12/16 12:54:39;;;;;;;8.23;5.90;;;12.40;79.20;;;;;;5058624;28;20032;-96
2021/12/16 12:57:22;;;;;;;10.55;6.80;;;12.40;79.10;;;;;;5059147;28;20104;-96
2021/12/16 12:59:48;;;;;;;8.75;5.82;;;12.40;79.20;;;;;;5040908;28;20068;-96
2021/12/16 13:02:23;;;;;;;9.63;6.68;;;12.40;79.00;;;;;;5040319;28;20127;-91
2021/12/16 13:04:57;;;;;;;9.13;6.30;;;12.40;79.10;;;;;;5040033;28;20025;-91
2021/12/16 13:07:39;;;;;;;8.85;6.10;;;12.40;79.00;;;;;;5056163;28;20048;-91
2021/12/16 13:10:17;;;;;;;10.32;6.80;;;12.40;79.10;;;;;;5056103;28;20056;-91
2021/12/16 13:13:03;;;;;;;9.02;6.38;;;12.40;79.00;;;;;;5039863;28;20036;-92
2021/12/16 13:15:47;;;;;;;8.05;5.95;;;12.40;79.00;;;;;;5056307;28;20149;-91
2021/12/16 13:26:41;;;;;;;9.25;6.50;;;12.40;79.00;;;;;;5056175;28;20044;-92
2021/12/16 13:29:41;;;;;;;9.35;6.25;;;12.40;79.10;;;;;;5039912;28;20103;-90
2021/12/16 13:32:16;;;;;;;8.73;6.07;;;12.40;79.20;;;;;;5055944;28;20047;-92
2021/12/16 13:35:21;;;;;;;9.93;7.20;;;12.40;79.10;;;;;;5055847;28;20039;-93
2021/12/16 13:37:55;;;;;;;8.10;5.93;;;12.40;79.20;;;;;;5055767;28;20055;-91
2021/12/16 13:40:25;;;;;;;9.00;6.55;;;12.40;79.10;;;;;;5056062;28;20123;-92
2021/12/16 13:43:00;;;;;;;9.07;6.50;;;12.40;79.10;;;;;;5056407;28;20033;-93
2021/12/16 13:45:43;;;;;;;8.70;6.40;;;12.40;79.10;;;;;;5056962;28;20588;-93
2021/12/16 14:05:27;;;;;;;9.32;7.10;;;12.40;79.10;;;;;;5056617;28;20493;-91
2021/12/16 14:07:58;;;;;;;9.65;6.72;;;12.40;79.10;;;;;;5040994;28;20111;-90
2021/12/16 14:16:57;;;;;;;9.18;6.38;;;12.50;79.30;;;;;;5058447;28;20037;-92
2021/12/16 14:36:53;;;;;;;9.23;6.53;;;12.40;79.20;;;;;;5056203;28;20477;-93
2021/12/16 14:42:37;;;;;;;8.85;6.30;;;12.40;79.30;;;;;;5056756;28;20462;-92
2021/12/16 14:45:39;;;;;;;10.57;6.82;;;12.40;79.20;;;;;;5057354;28;20032;-92
2021/12/16 14:50:53;;;;;;;9.98;7.15;;;12.40;79.30;;;;;;5060307;28;20044;-93
2021/12/16 14:53:28;;;;;;;9.13;6.63;;;12.40;79.30;;;;;;5042192;28;20415;-94
2021/12/16 14:56:09;;;;;;;9.48;6.97;;;12.40;79.20;;;;;;5054947;28;20029;-93
2021/12/16 14:58:35;;;;;;;8.43;6.35;;;12.40;79.30;;;;;;5055669;28;20032;-93
2021/12/16 15:01:16;;;;;;;8.85;6.78;;;12.40;79.20;;;;;;5038564;28;20492;-92
2021/12/16 15:03:43;;;;;;;9.98;7.10;;;12.40;79.30;;;;;;5038453;28;20021;-94
2021/12/16 15:06:20;;;;;;;9.93;7.15;;;12.40;79.20;;;;;;5054622;28;20375;-92
2021/12/16 15:08:56;;;;;;;9.63;7.40;;;12.40;79.20;;;;;;5038059;28;20028;-92
2021/12/16 15:11:40;;;;;;;9.20;6.82;;;12.40;79.20;;;;;;5038383;28;20037;-93
2021/12/16 15:14:24;;;;;;;9.23;7.07;;;12.40;79.20;;;;;;5039546;28;20047;-92
2021/12/16 15:17:17;;;;;;;9.63;7.13;;;12.40;79.20;;;;;;5038739;28;20116;-93
2021/12/16 15:40:07;;;;;;;10.68;7.88;;;12.40;79.10;;;;;;5026988;28;20103;-94
2021/12/16 15:42:47;;;;;;;9.70;7.43;;;12.40;79.20;;;;;;5038524;28;20119;-95
2021/12/16 15:45:23;;;;;;;9.00;6.07;;;12.40;79.10;;;;;;5037606;28;20450;-93
2021/12/16 15:48:14;;;;;;;11.25;7.60;;;12.40;79.20;;;;;;5054372;28;20033;-96
2021/12/16 15:50:49;;;;;;;10.32;7.40;;;12.40;79.10;;;;;;5043064;28;20114;-96
2021/12/16 15:53:38;;;;;;;10.82;7.72;;;12.40;79.10;;;;;;5054424;28;20025;-95
2021/12/16 15:56:10;;;;;;;10.77;7.25;;;12.40;79.20;;;;;;5059347;28;20028;-96
2021/12/16 15:58:54;;;;;;;11.60;7.60;;;12.40;79.00;;;;;;5057754;28;20033;-93
2021/12/16 16:01:31;;;;;;;10.55;7.78;;;12.40;79.20;;;;;;5060679;28;20060;-96
2021/12/16 16:04:06;;;;;;;10.57;7.68;;;12.30;79.00;;;;;;5055100;28;20063;-92
2021/12/16 16:06:33;;;;;;;10.07;7.43;;;12.40;79.10;;;;;;5053594;28;20036;-94
2021/12/16 16:09:10;;;;;;;11.50;7.80;;;12.40;79.00;;;;;;5053872;28;20025;-94
2021/12/16 16:11:44;;;;;;;10.43;7.43;;;12.30;79.00;;;;;;5054939;28;20036;-92
2021/12/16 16:14:14;;;;;;;10.75;8.10;;;12.40;79.00;;;;;;5054570;28;20115;-95
2021/12/16 16:16:47;;;;;;;11.15;7.60;;;12.30;79.00;;;;;;5045395;28;20024;-95
2021/12/16 16:19:20;;;;;;;10.75;8.07;;;12.30;79.00;;;;;;5058469;28;20041;-95
2021/12/16 16:21:50;;;;;;;9.88;6.97;;;12.30;79.00;;;;;;5059544;28;20033;-96
2021/12/16 16:24:21;;;;;;;10.25;7.97;;;12.30;79.00;;;;;;5041968;28;20021;-96
2021/12/16 16:26:50;;;;;;;11.00;8.02;;;12.30;79.00;;;;;;5041942;28;20029;-92
2021/12/16 16:29:20;;;;;;;9.68;7.43;;;12.30;78.90;;;;;;5058701;28;20048;-93
2021/12/16 16:31:50;;;;;;;10.23;7.35;;;12.30;78.90;;;;;;5058200;28;20083;-96
2021/12/16 16:34:23;;;;;;;10.32;7.60;;;12.30;79.00;;;;;;5043945;28;20036;-95
2021/12/16 16:36:53;;;;;;;11.63;7.85;;;12.30;78.90;;;;;;5058657;28;20036;-94
2021/12/16 16:39:24;;;;;;;9.32;7.25;;;12.30;78.90;;;;;;5057470;28;20525;-94
2021/12/16 16:41:55;;;;;;;10.27;8.00;;;12.30;78.90;;;;;;5056994;28;20029;-93
2021/12/16 16:44:23;;;;;;;10.50;8.10;;;12.30;78.90;;;;;;5057455;28;20025;-95
2021/12/16 16:47:09;;;;;;;10.48;7.95;;;12.30;78.90;;;;;;5058605;28;20446;-95
2021/12/16 16:49:50;;;;;;;9.90;7.18;;;12.30;79.00;;;;;;5040656;28;20025;-94
2021/12/16 16:52:21;;;;;;;9.60;7.30;;;12.20;78.90;;;;;;5040944;28;20028;-95
2021/12/16 16:55:00;;;;;;;9.88;7.78;;;12.20;78.80;;;;;;5057416;28;20025;-95
2021/12/16 16:57:33;;;;;;;9.88;7.22;;;12.20;78.90;;;;;;5041655;28;20029;-96
2021/12/16 17:00:05;;;;;;;9.02;7.20;;;12.20;78.90;;;;;;5042291;28;20109;-92
2021/12/16 17:02:40;;;;;;;9.82;7.18;;;12.20;78.80;;;;;;5060939;28;20033;-93
2021/12/16 17:05:27;;;;;;;9.23;7.03;;;12.20;78.90;;;;;;5040769;28;20021;-96
2021/12/16 17:07:57;;;;;;;9.05;6.90;;;12.20;78.80;;;;;;5060110;28;20029;-96